Time;durP1;ratioP1;P1;durP2;ratioP2;P2;SDS_P1;SDS_P2;PMS_P1;PMS_P2;Temp;Humidity;BMP_temperature;BMP_pressure;BME280_temperature;BME280_humidity;BME280_pressure;Samples;Min_cycle;Max_cycle;Signal;HPM_P1;HPM_P2
2023/08/07 00:03:02;;;;;;;3.15;1.50;;;;;;;;;;20917894;28;20091;-61
2023/08/07 00:13:03;;;;;;;5.25;1.13;;;;;;;;;;20917008;28;20091;-62
2023/08/07 00:23:04;;;;;;;4.35;1.10;;;;;;;;;;20915554;28;20041;-62
2023/08/07 00:33:06;;;;;;;4.90;1.17;;;;;;;;;;20916468;28;20037;-62
2023/08/07 00:43:07;;;;;;;4.47;1.23;;;;;;;;;;20914762;28;20089;-61
2023/08/07 00:53:08;;;;;;;5.25;0.90;;;;;;;;;;20914853;28;20491;-62
2023/08/07 01:03:11;;;;;;;4.32;1.13;;;;;;;;;;20914477;28;20128;-62
2023/08/07 01:13:17;;;;;;;5.60;1.45;;;;;;;;;;20913385;28;20068;-62
2023/08/07 01:23:18;;;;;;;4.17;1.00;;;;;;;;;;20912039;28;20124;-62
2023/08/07 01:33:33;;;;;;;8.10;1.10;;;;;;;;;;20912694;28;20141;-61
2023/08/07 01:43:34;;;;;;;4.15;1.48;;;;;;;;;;20913281;28;20107;-62
2023/08/07 01:53:35;;;;;;;4.88;1.30;;;;;;;;;;20912249;28;20121;-62
2023/08/07 02:03:36;;;;;;;4.32;0.90;;;;;;;;;;20911602;28;20045;-61
2023/08/07 02:13:37;;;;;;;5.90;1.40;;;;;;;;;;20924855;28;20165;-61
2023/08/07 02:23:39;;;;;;;3.72;1.02;;;;;;;;;;20927120;28;20128;-61
2023/08/07 02:33:41;;;;;;;3.25;1.00;;;;;;;;;;20926602;28;20459;-62
2023/08/07 02:43:42;;;;;;;5.07;1.25;;;;;;;;;;20925261;28;20131;-61
2023/08/07 02:53:43;;;;;;;3.60;0.98;;;;;;;;;;20924678;28;20063;-61
2023/08/07 03:03:45;;;;;;;6.05;1.20;;;;;;;;;;20923770;28;20051;-61
2023/08/07 03:13:46;;;;;;;3.15;0.90;;;;;;;;;;20922174;28;20056;-61
2023/08/07 03:23:47;;;;;;;2.95;0.90;;;;;;;;;;20922206;28;20040;-61
2023/08/07 03:33:48;;;;;;;5.00;1.00;;;;;;;;;;20921175;28;20049;-61
2023/08/07 03:43:49;;;;;;;3.03;1.13;;;;;;;;;;20919493;28;20048;-62
2023/08/07 03:53:50;;;;;;;2.95;0.80;;;;;;;;;;20918650;28;20478;-61
2023/08/07 04:03:51;;;;;;;5.03;1.13;;;;;;;;;;20919303;28;20041;-61
2023/08/07 04:13:52;;;;;;;5.75;1.10;;;;;;;;;;20917427;28;20049;-63
2023/08/07 04:23:54;;;;;;;3.40;0.73;;;;;;;;;;20917714;28;20444;-61
2023/08/07 04:33:55;;;;;;;4.22;1.00;;;;;;;;;;20916041;28;20041;-61
2023/08/07 04:43:56;;;;;;;3.45;0.80;;;;;;;;;;20915041;28;20041;-62
2023/08/07 04:53:57;;;;;;;2.97;0.80;;;;;;;;;;20915654;28;20098;-61
2023/08/07 05:03:59;;;;;;;2.13;0.80;;;;;;;;;;20914664;28;20045;-61
2023/08/07 05:14:00;;;;;;;4.50;1.20;;;;;;;;;;20914673;28;20394;-62
2023/08/07 05:24:01;;;;;;;4.40;1.00;;;;;;;;;;20912068;28;20045;-61
2023/08/07 05:34:02;;;;;;;3.72;0.88;;;;;;;;;;20912824;28;20049;-63
2023/08/07 05:44:05;;;;;;;3.40;0.90;;;;;;;;;;20912208;28;20041;-63
2023/08/07 05:54:06;;;;;;;2.75;1.08;;;;;;;;;;20911694;28;20052;-63
2023/08/07 06:04:08;;;;;;;3.55;0.90;;;;;;;;;;20910372;28;20146;-62
2023/08/07 06:14:09;;;;;;;3.83;0.88;;;;;;;;;;20910327;28;20049;-64
2023/08/07 06:24:11;;;;;;;2.70;1.10;;;;;;;;;;20910634;28;20490;-62
2023/08/07 06:34:12;;;;;;;3.60;0.90;;;;;;;;;;20910379;28;20106;-62
2023/08/07 06:44:13;;;;;;;6.72;1.15;;;;;;;;;;20909665;28;20048;-62
2023/08/07 06:54:14;;;;;;;2.50;1.00;;;;;;;;;;20914598;28;20044;-61
2023/08/07 07:04:15;;;;;;;2.85;0.88;;;;;;;;;;20923879;28;20044;-62
2023/08/07 07:14:16;;;;;;;5.63;1.00;;;;;;;;;;20921941;28;20063;-62
2023/08/07 07:24:18;;;;;;;4.60;1.05;;;;;;;;;;20922404;28;20150;-62
2023/08/07 07:34:19;;;;;;;3.75;0.80;;;;;;;;;;20921568;28;20352;-62
2023/08/07 07:44:20;;;;;;;4.13;0.90;;;;;;;;;;20919575;28;20134;-61
2023/08/07 07:54:21;;;;;;;4.82;1.13;;;;;;;;;;20918875;28;20051;-62
2023/08/07 08:04:22;;;;;;;4.20;1.08;;;;;;;;;;20919744;28;20044;-62
2023/08/07 08:14:24;;;;;;;3.83;1.05;;;;;;;;;;20919008;28;20053;-62
2023/08/07 08:24:25;;;;;;;4.75;1.30;;;;;;;;;;20917962;28;20489;-62
2023/08/07 08:34:26;;;;;;;3.67;1.20;;;;;;;;;;20916252;28;20052;-62
2023/08/07 08:44:30;;;;;;;5.18;1.40;;;;;;;;;;20916240;28;20099;-62
2023/08/07 08:54:31;;;;;;;5.00;1.13;;;;;;;;;;20915957;28;20513;-62
2023/08/07 09:04:32;;;;;;;2.58;1.08;;;;;;;;;;20915496;28;20045;-63
2023/08/07 09:14:34;;;;;;;3.72;1.30;;;;;;;;;;20913831;28;20082;-62
2023/08/07 09:24:36;;;;;;;4.53;1.20;;;;;;;;;;20913588;28;20111;-63
2023/08/07 09:34:40;;;;;;;2.60;1.15;;;;;;;;;;20913582;28;20441;-62
2023/08/07 09:44:42;;;;;;;4.65;1.27;;;;;;;;;;20912864;28;20423;-62
2023/08/07 09:54:43;;;;;;;2.30;1.10;;;;;;;;;;20912530;28;20048;-62
2023/08/07 10:04:44;;;;;;;3.75;1.33;;;;;;;;;;20912083;28;20048;-62
2023/08/07 10:14:45;;;;;;;5.32;1.30;;;;;;;;;;20910360;28;20103;-62
2023/08/07 10:24:50;;;;;;;8.65;1.33;;;;;;;;;;20910035;28;20049;-63
2023/08/07 10:34:51;;;;;;;8.43;1.15;;;;;;;;;;20924806;28;20128;-62
2023/08/07 10:44:53;;;;;;;4.50;1.38;;;;;;;;;;20924576;28;20041;-63
2023/08/07 10:54:55;;;;;;;3.70;1.20;;;;;;;;;;20923736;28;20052;-63
2023/08/07 11:04:56;;;;;;;4.63;1.48;;;;;;;;;;20923682;28;20418;-63
2023/08/07 11:14:57;;;;;;;9.48;1.33;;;;;;;;;;20921340;28;20091;-63
2023/08/07 11:24:59;;;;;;;7.07;1.42;;;;;;;;;;20921326;28;20064;-63
2023/08/07 11:35:02;;;;;;;7.13;1.48;;;;;;;;;;20921863;28;20506;-63
2023/08/07 11:45:04;;;;;;;4.45;1.65;;;;;;;;;;20920386;28;20486;-63
2023/08/07 11:55:08;;;;;;;6.30;1.45;;;;;;;;;;20918733;28;20051;-63
2023/08/07 12:05:11;;;;;;;12.55;1.50;;;;;;;;;;20917996;28;20106;-64
2023/08/07 12:15:13;;;;;;;7.50;1.40;;;;;;;;;;20918004;28;20059;-64
2023/08/07 12:25:14;;;;;;;4.18;1.50;;;;;;;;;;20917721;28;20490;-64
2023/08/07 12:35:15;;;;;;;4.32;1.30;;;;;;;;;;20917050;28;20501;-64
2023/08/07 12:45:16;;;;;;;4.32;1.58;;;;;;;;;;20914980;28;20045;-64
2023/08/07 12:55:17;;;;;;;5.45;1.60;;;;;;;;;;20914638;28;20479;-63
2023/08/07 13:05:19;;;;;;;5.38;1.33;;;;;;;;;;20914815;28;20073;-64
2023/08/07 13:15:21;;;;;;;5.18;1.20;;;;;;;;;;20913105;28;20057;-63
2023/08/07 13:25:22;;;;;;;5.93;1.88;;;;;;;;;;20913621;28;20049;-63
2023/08/07 13:35:23;;;;;;;4.80;1.30;;;;;;;;;;20913038;28;20124;-64
2023/08/07 13:45:24;;;;;;;4.38;1.90;;;;;;;;;;20914032;28;20457;-64
2023/08/07 13:55:25;;;;;;;6.13;1.27;;;;;;;;;;20912585;28;20045;-64
2023/08/07 14:05:26;;;;;;;8.25;1.60;;;;;;;;;;20921785;28;20510;-64
2023/08/07 14:15:27;;;;;;;4.05;1.40;;;;;;;;;;20929367;28;20477;-63
2023/08/07 14:25:28;;;;;;;5.00;1.52;;;;;;;;;;20926987;28;20041;-65
2023/08/07 14:35:30;;;;;;;4.00;1.33;;;;;;;;;;20925862;28;20045;-65
2023/08/07 14:45:31;;;;;;;5.22;1.30;;;;;;;;;;20926423;28;20040;-64
2023/08/07 14:55:32;;;;;;;3.75;1.05;;;;;;;;;;20925771;28;20425;-64
2023/08/07 15:05:33;;;;;;;2.60;1.10;;;;;;;;;;20925107;28;20036;-64
2023/08/07 15:15:34;;;;;;;6.03;1.27;;;;;;;;;;20923287;28;20430;-64
2023/08/07 15:25:37;;;;;;;2.00;0.85;;;;;;;;;;20923384;28;20127;-64
2023/08/07 15:35:38;;;;;;;6.45;1.13;;;;;;;;;;20922601;28;20402;-66
2023/08/07 15:45:39;;;;;;;3.42;1.00;;;;;;;;;;20921793;28;20513;-66
2023/08/07 15:55:40;;;;;;;3.92;1.50;;;;;;;;;;20921123;28;20052;-65
2023/08/07 16:05:41;;;;;;;4.03;1.08;;;;;;;;;;20919377;28;20409;-66
2023/08/07 16:15:43;;;;;;;8.85;1.40;;;;;;;;;;20918306;28;20414;-66
2023/08/07 16:25:44;;;;;;;6.05;1.50;;;;;;;;;;20918276;28;20049;-66
2023/08/07 16:35:45;;;;;;;5.60;1.20;;;;;;;;;;20917285;28;20045;-66
2023/08/07 16:45:46;;;;;;;2.15;1.08;;;;;;;;;;20916159;28;20481;-65
2023/08/07 16:55:47;;;;;;;3.55;1.25;;;;;;;;;;20914031;28;20038;-63
2023/08/07 17:05:48;;;;;;;2.58;1.50;;;;;;;;;;20913855;28;20052;-65
2023/08/07 17:15:50;;;;;;;3.65;1.08;;;;;;;;;;20913254;28;20053;-65
2023/08/07 17:25:51;;;;;;;2.97;1.00;;;;;;;;;;20913805;28;20044;-64
2023/08/07 17:35:52;;;;;;;5.63;1.05;;;;;;;;;;20912826;28;20421;-64
2023/08/07 17:45:53;;;;;;;3.83;1.20;;;;;;;;;;20912770;28;20059;-65
2023/08/07 17:55:54;;;;;;;2.45;1.58;;;;;;;;;;20911413;28;20399;-65
2023/08/07 18:05:55;;;;;;;3.55;1.92;;;;;;;;;;20911917;28;20064;-64
2023/08/07 18:15:57;;;;;;;5.07;1.25;;;;;;;;;;20910370;28;20063;-64
2023/08/07 18:25:58;;;;;;;3.75;1.95;;;;;;;;;;20911371;28;20120;-64
2023/08/07 18:36:00;;;;;;;3.55;1.45;;;;;;;;;;20911256;28;20041;-63
2023/08/07 18:46:01;;;;;;;7.75;1.73;;;;;;;;;;20910680;28;20593;-64
2023/08/07 18:56:02;;;;;;;7.60;2.10;;;;;;;;;;20924389;28;20049;-64
2023/08/07 19:06:05;;;;;;;6.85;2.70;;;;;;;;;;20922583;28;20052;-65
2023/08/07 19:16:06;;;;;;;7.47;3.45;;;;;;;;;;20922956;28;20086;-64
2023/08/07 19:26:08;;;;;;;7.63;4.85;;;;;;;;;;20922270;28;20101;-63
2023/08/07 19:36:09;;;;;;;10.55;5.30;;;;;;;;;;20921983;28;20052;-64
2023/08/07 19:46:10;;;;;;;12.27;5.25;;;;;;;;;;20921385;28;20056;-64
2023/08/07 19:56:11;;;;;;;15.38;7.05;;;;;;;;;;20920767;28;20051;-64
2023/08/07 20:06:12;;;;;;;10.23;6.40;;;;;;;;;;20919862;28;20041;-65
2023/08/07 20:16:13;;;;;;;12.23;5.60;;;;;;;;;;20917965;28;20053;-64
2023/08/07 20:26:15;;;;;;;12.00;5.57;;;;;;;;;;20918934;28;20056;-63
2023/08/07 20:36:17;;;;;;;10.43;4.20;;;;;;;;;;20917813;28;20106;-65
2023/08/07 20:46:18;;;;;;;12.85;6.38;;;;;;;;;;20915352;28;20060;-64
2023/08/07 20:56:19;;;;;;;12.20;6.13;;;;;;;;;;20914748;28;20056;-63
2023/08/07 21:06:20;;;;;;;13.77;6.80;;;;;;;;;;20914555;28;20056;-64
2023/08/07 21:16:22;;;;;;;10.00;4.63;;;;;;;;;;20913630;28;20084;-64
2023/08/07 21:26:23;;;;;;;13.32;4.22;;;;;;;;;;20913712;28;20102;-64
2023/08/07 21:36:24;;;;;;;7.15;2.85;;;;;;;;;;20914343;28;20056;-64
2023/08/07 21:46:25;;;;;;;4.20;2.30;;;;;;;;;;20912585;28;20076;-64
2023/08/07 21:56:27;;;;;;;6.07;2.08;;;;;;;;;;20913330;28;20051;-64
2023/08/07 22:06:28;;;;;;;8.25;2.58;;;;;;;;;;20912945;28;20103;-63
2023/08/07 22:16:29;;;;;;;5.65;2.28;;;;;;;;;;20913326;28;20124;-64
2023/08/07 22:26:30;;;;;;;4.15;2.28;;;;;;;;;;20921392;28;20470;-64
2023/08/07 22:36:31;;;;;;;6.18;1.77;;;;;;;;;;20927890;28;20048;-64
2023/08/07 22:46:32;;;;;;;5.95;2.38;;;;;;;;;;20927038;28;20041;-64
2023/08/07 22:56:33;;;;;;;11.50;2.67;;;;;;;;;;20924724;28;20102;-64
2023/08/07 23:06:34;;;;;;;5.43;2.33;;;;;;;;;;20925372;28;20528;-63
2023/08/07 23:16:36;;;;;;;4.50;2.25;;;;;;;;;;20925699;28;20448;-63
2023/08/07 23:26:39;;;;;;;8.35;2.13;;;;;;;;;;20922842;28;20098;-63
2023/08/07 23:36:40;;;;;;;5.05;2.30;;;;;;;;;;20922556;28;20498;-63
2023/08/07 23:46:41;;;;;;;7.22;2.60;;;;;;;;;;20922702;28;20367;-63
2023/08/07 23:56:42;;;;;;;6.30;2.78;;;;;;;;;;20922209;28;20072;-63
